Terminal Aerodrome Forecast
Issued by NWS

Home | Current Version | Previous Version | Text Only | Print | Product List | Glossary On
Versions: 1 2 3 4 5 6 7 8 9 10 11 12 13 14 15 16 17 18 19 20 21
000
FTUS42 KTAE 201731
TAFVLD
TAF
KVLD 201731Z 2018/2118 21010KT P6SM BKN030
     FM210200 20006KT P6SM OVC020
     FM210600 19004KT 3SM BR OVC008
     FM211000 18005KT 1SM -RA BR OVC003
     FM211400 19010G18KT 6SM -RA OVC015=

USA.gov is the U.S. government's official web portal to all federal, state and local government web resources and services.